Time;durP1;ratioP1;P1;durP2;ratioP2;P2;SDS_P1;SDS_P2;PMS_P1;PMS_P2;Temp;Humidity;BMP_temperature;BMP_pressure;BME280_temperature;BME280_humidity;BME280_pressure;Samples;Min_cycle;Max_cycle;Signal;HPM_P1;HPM_P2
2021/05/25 00:00:00;;;;;;;1.95;1.05;;;11.10;37.90;;;;;;5037366;28;20822;-81
2021/05/25 00:02:26;;;;;;;1.90;1.00;;;10.90;38.00;;;;;;5054612;28;20758;-81
2021/05/25 00:04:51;;;;;;;2.40;0.83;;;10.80;38.70;;;;;;5036690;28;20392;-81
2021/05/25 00:07:17;;;;;;;3.70;1.70;;;10.80;39.00;;;;;;5065210;28;20386;-82
2021/05/25 00:09:42;;;;;;;2.00;1.10;;;10.70;39.10;;;;;;5050402;28;20429;-82
2021/05/25 00:12:08;;;;;;;3.50;1.30;;;10.60;39.90;;;;;;5034241;28;20883;-82
2021/05/25 00:14:34;;;;;;;1.80;0.93;;;10.50;40.60;;;;;;5034904;28;20896;-80
2021/05/25 00:17:00;;;;;;;3.33;1.30;;;10.40;41.20;;;;;;5038555;28;20390;-82
2021/05/25 00:19:25;;;;;;;2.97;1.00;;;10.20;41.90;;;;;;5038232;28;20395;-81
2021/05/25 00:21:51;;;;;;;3.75;1.00;;;10.10;43.10;;;;;;5039270;28;20379;-80
2021/05/25 00:24:17;;;;;;;3.13;1.00;;;10.10;43.40;;;;;;5038147;28;20406;-82
2021/05/25 00:26:43;;;;;;;2.50;1.20;;;10.10;43.80;;;;;;5038068;28;20776;-82
2021/05/25 00:29:08;;;;;;;1.50;0.90;;;10.00;44.60;;;;;;5037055;28;20407;-82
2021/05/25 00:31:34;;;;;;;1.47;1.00;;;10.10;44.80;;;;;;5038771;28;20446;-84
2021/05/25 00:33:59;;;;;;;1.67;1.30;;;10.10;45.10;;;;;;5055144;28;20860;-84
2021/05/25 00:36:28;;;;;;;2.10;1.10;;;10.10;44.90;;;;;;5048320;28;20389;-82
2021/05/25 00:38:54;;;;;;;3.30;1.20;;;10.30;44.50;;;;;;5040458;28;20455;-83
2021/05/25 00:41:20;;;;;;;1.40;1.30;;;10.40;43.50;;;;;;5059103;28;20385;-82
2021/05/25 00:43:46;;;;;;;1.70;1.20;;;10.50;43.20;;;;;;5058684;28;20389;-82
2021/05/25 00:46:12;;;;;;;1.30;1.10;;;10.60;42.80;;;;;;5055786;28;20422;-81
2021/05/25 00:48:38;;;;;;;2.30;1.30;;;10.60;42.40;;;;;;5039766;28;20415;-83
2021/05/25 00:51:04;;;;;;;4.05;1.60;;;10.60;42.50;;;;;;5047096;28;20391;-81
2021/05/25 00:53:30;;;;;;;2.45;1.00;;;10.50;42.40;;;;;;5042117;28;20394;-82
2021/05/25 00:55:56;;;;;;;3.22;1.25;;;10.60;41.80;;;;;;5048170;28;20376;-83
2021/05/25 00:58:22;;;;;;;3.10;1.30;;;10.60;42.50;;;;;;5069810;28;20389;-83
2021/05/25 01:00:48;;;;;;;1.63;1.00;;;10.70;41.80;;;;;;5075845;28;20384;-82
2021/05/25 01:03:19;;;;;;;3.00;1.20;;;10.60;41.30;;;;;;5060444;28;20417;-82
2021/05/25 01:05:46;;;;;;;2.67;1.13;;;10.50;41.40;;;;;;5075574;28;20439;-83
2021/05/25 01:08:13;;;;;;;1.77;1.20;;;10.50;41.70;;;;;;5051396;28;20454;-80
2021/05/25 01:10:52;;;;;;;3.25;1.20;;;10.40;41.80;;;;;;5048474;28;20794;-83
2021/05/25 01:13:22;;;;;;;3.15;1.30;;;10.30;41.70;;;;;;5038037;28;20383;-82
2021/05/25 01:15:49;;;;;;;4.07;1.48;;;10.30;41.80;;;;;;5051305;28;20386;-82
2021/05/25 01:18:15;;;;;;;3.37;1.10;;;10.10;42.90;;;;;;5060937;28;20382;-83
2021/05/25 01:20:43;;;;;;;1.70;1.20;;;10.10;42.80;;;;;;5042159;28;20508;-81
2021/05/25 01:23:09;;;;;;;2.30;1.00;;;10.00;42.40;;;;;;5060820;28;21092;-82
2021/05/25 01:25:37;;;;;;;1.30;1.00;;;10.20;41.40;;;;;;5049301;28;20397;-83
2021/05/25 01:28:05;;;;;;;3.05;0.98;;;9.90;42.30;;;;;;5044483;28;20710;-80
2021/05/25 01:30:35;;;;;;;1.10;0.90;;;9.90;42.80;;;;;;5056866;28;20402;-81
2021/05/25 01:33:02;;;;;;;2.55;1.00;;;9.90;43.20;;;;;;5047528;28;20391;-83
2021/05/25 01:35:29;;;;;;;2.80;1.10;;;9.80;42.90;;;;;;5043734;28;20431;-83
2021/05/25 01:37:56;;;;;;;2.67;1.17;;;9.70;43.40;;;;;;5040577;28;20387;-84
2021/05/25 01:42:59;;;;;;;2.15;1.10;;;9.60;44.20;;;;;;5030158;28;20438;-68
2021/05/25 01:45:28;;;;;;;1.80;1.30;;;9.60;43.60;;;;;;5032407;28;20752;-69
2021/05/25 01:47:55;;;;;;;2.10;1.10;;;9.60;43.90;;;;;;5032563;28;20902;-69
2021/05/25 01:50:24;;;;;;;3.95;1.20;;;9.60;43.60;;;;;;5033116;28;20387;-70
2021/05/25 01:53:00;;;;;;;1.65;1.20;;;9.50;43.70;;;;;;5013144;28;20789;-70
2021/05/25 01:55:27;;;;;;;2.00;1.00;;;9.50;44.30;;;;;;5012555;28;20415;-70
2021/05/25 01:57:58;;;;;;;2.30;1.15;;;9.50;44.50;;;;;;5012746;28;20380;-70
2021/05/25 02:00:24;;;;;;;2.60;0.90;;;9.50;44.20;;;;;;5012873;28;20381;-71
2021/05/25 02:02:50;;;;;;;2.20;1.10;;;9.60;43.60;;;;;;5012639;28;20457;-70
2021/05/25 02:05:16;;;;;;;4.00;1.07;;;9.60;43.50;;;;;;5012187;28;20760;-70
2021/05/25 02:07:46;;;;;;;1.17;0.93;;;9.60;43.30;;;;;;4994851;28;20400;-69
2021/05/25 02:10:31;;;;;;;2.97;0.90;;;9.50;43.70;;;;;;5012339;28;20412;-69
2021/05/25 02:13:00;;;;;;;2.10;1.00;;;9.50;43.80;;;;;;5012913;28;20380;-69
2021/05/25 02:15:26;;;;;;;3.55;0.90;;;9.60;43.30;;;;;;5012013;28;20404;-69
2021/05/25 02:17:52;;;;;;;3.00;1.10;;;9.50;43.20;;;;;;5012813;28;20503;-69
2021/05/25 02:20:18;;;;;;;2.20;1.10;;;9.60;42.70;;;;;;5012349;28;20391;-69
2021/05/25 02:22:43;;;;;;;2.55;1.10;;;9.50;42.60;;;;;;5012348;28;20463;-69
2021/05/25 02:25:09;;;;;;;3.20;1.00;;;9.50;42.50;;;;;;5011772;28;20792;-69
2021/05/25 02:27:35;;;;;;;1.85;0.95;;;9.60;41.90;;;;;;5011962;28;20385;-69
2021/05/25 02:30:01;;;;;;;1.63;0.80;;;9.60;41.60;;;;;;5011656;28;20404;-69
2021/05/25 02:32:27;;;;;;;1.13;0.90;;;9.60;41.70;;;;;;5011622;28;20726;-70
2021/05/25 02:34:53;;;;;;;2.35;0.90;;;9.50;42.00;;;;;;5011087;28;20399;-69
2021/05/25 02:37:19;;;;;;;2.20;1.15;;;9.60;41.50;;;;;;4993332;28;20423;-69
2021/05/25 02:39:44;;;;;;;1.70;1.00;;;9.70;41.10;;;;;;5011563;28;20943;-69
2021/05/25 02:42:10;;;;;;;4.93;1.00;;;9.80;40.30;;;;;;5011292;28;20420;-69
2021/05/25 02:44:36;;;;;;;1.30;0.90;;;9.90;40.40;;;;;;5010791;28;20413;-69
2021/05/25 02:47:01;;;;;;;2.83;1.70;;;9.90;39.50;;;;;;5011661;28;20381;-69
2021/05/25 02:49:27;;;;;;;1.40;1.30;;;10.00;39.70;;;;;;5012147;28;20443;-69
2021/05/25 02:51:52;;;;;;;3.45;1.40;;;10.00;39.80;;;;;;5012137;28;20797;-69
2021/05/25 02:54:18;;;;;;;3.00;1.20;;;10.10;39.70;;;;;;5012115;28;20757;-70
2021/05/25 02:56:43;;;;;;;2.77;1.10;;;10.10;39.00;;;;;;5011622;28;20878;-69
2021/05/25 02:59:09;;;;;;;3.10;1.60;;;10.20;38.70;;;;;;5011236;28;20905;-69
2021/05/25 03:01:34;;;;;;;1.80;0.90;;;10.30;38.70;;;;;;5011171;28;20400;-70
2021/05/25 03:04:00;;;;;;;4.70;1.20;;;10.20;38.80;;;;;;5010840;28;20471;-69
2021/05/25 03:06:26;;;;;;;1.40;0.90;;;10.30;38.50;;;;;;5010142;28;20408;-70
2021/05/25 03:08:51;;;;;;;2.00;0.90;;;10.30;38.40;;;;;;5011189;28;20499;-70
2021/05/25 03:11:17;;;;;;;4.88;1.58;;;10.30;38.60;;;;;;4993279;28;20393;-69
2021/05/25 03:13:43;;;;;;;2.03;1.10;;;10.30;39.10;;;;;;5010643;28;20393;-69
2021/05/25 03:16:08;;;;;;;4.40;0.97;;;10.30;38.60;;;;;;5010950;28;20483;-69
2021/05/25 03:18:34;;;;;;;3.37;1.53;;;10.30;38.90;;;;;;5010952;28;20395;-69
2021/05/25 03:20:59;;;;;;;2.03;1.40;;;10.40;38.90;;;;;;5010644;28;20420;-69
2021/05/25 03:23:25;;;;;;;3.30;0.97;;;10.40;38.70;;;;;;5011207;28;20415;-70
2021/05/25 03:25:53;;;;;;;1.53;0.90;;;10.50;38.20;;;;;;5010385;28;20416;-70
2021/05/25 03:28:18;;;;;;;1.50;0.90;;;10.40;38.50;;;;;;5010443;28;20495;-70
2021/05/25 03:30:44;;;;;;;2.20;0.90;;;10.50;38.60;;;;;;5010846;28;20464;-70
2021/05/25 03:33:10;;;;;;;4.40;1.10;;;10.40;38.70;;;;;;4992683;28;20459;-70
2021/05/25 03:35:36;;;;;;;1.63;0.95;;;10.40;38.60;;;;;;5010579;28;20805;-69
2021/05/25 03:38:03;;;;;;;2.27;1.07;;;10.40;39.00;;;;;;5010826;28;20904;-69
2021/05/25 03:40:29;;;;;;;1.60;0.90;;;10.40;38.60;;;;;;5010672;28;20881;-69
2021/05/25 03:42:55;;;;;;;5.97;1.27;;;10.50;38.60;;;;;;4992643;28;20436;-70
2021/05/25 03:45:23;;;;;;;1.50;1.00;;;10.60;37.90;;;;;;5010555;28;20500;-70
2021/05/25 03:47:48;;;;;;;3.38;1.00;;;10.60;38.40;;;;;;5010794;28;20901;-70
2021/05/25 03:50:15;;;;;;;2.30;0.90;;;10.60;38.80;;;;;;5012264;28;20466;-70
2021/05/25 03:52:59;;;;;;;1.60;1.00;;;10.60;39.80;;;;;;4996757;28;20424;-70
2021/05/25 03:55:52;;;;;;;3.25;1.20;;;10.50;40.30;;;;;;4996755;28;20393;-70
2021/05/25 04:01:03;;;;;;;3.30;1.20;;;10.40;43.90;;;;;;5014679;28;20426;-70
2021/05/25 04:03:29;;;;;;;1.20;0.90;;;10.50;41.30;;;;;;5014422;28;20384;-70
2021/05/25 04:05:55;;;;;;;4.00;1.30;;;10.40;42.50;;;;;;5014105;28;20418;-69
2021/05/25 04:08:20;;;;;;;2.10;1.40;;;10.40;42.70;;;;;;5014014;28;20964;-70
2021/05/25 04:10:47;;;;;;;3.00;1.30;;;10.40;44.10;;;;;;5013936;28;20435;-70
2021/05/25 04:13:14;;;;;;;2.72;1.05;;;10.40;44.30;;;;;;5014048;28;20410;-70
2021/05/25 04:15:47;;;;;;;2.70;1.43;;;10.50;43.20;;;;;;5020217;28;20879;-70
2021/05/25 04:18:12;;;;;;;1.10;1.00;;;10.50;43.40;;;;;;5033835;28;20391;-70
2021/05/25 04:20:38;;;;;;;5.00;1.30;;;10.50;43.30;;;;;;5033790;28;20440;-70
2021/05/25 04:23:04;;;;;;;1.33;0.90;;;10.50;43.40;;;;;;5033624;28;20429;-70
2021/05/25 04:25:29;;;;;;;1.00;0.90;;;10.50;43.10;;;;;;5010390;28;20401;-70
2021/05/25 04:27:55;;;;;;;2.40;0.90;;;10.60;42.90;;;;;;5013820;28;20431;-70
2021/05/25 04:30:21;;;;;;;2.77;1.50;;;10.60;42.80;;;;;;5014137;28;20385;-70
2021/05/25 04:32:47;;;;;;;2.95;1.10;;;10.60;43.10;;;;;;5013440;28;20381;-70
2021/05/25 04:35:14;;;;;;;2.75;1.30;;;10.60;42.90;;;;;;5013417;28;20388;-70
2021/05/25 04:37:39;;;;;;;2.60;1.00;;;10.70;41.80;;;;;;5013976;28;20460;-70
2021/05/25 04:40:05;;;;;;;2.70;1.27;;;10.70;42.00;;;;;;4996038;28;20605;-70
2021/05/25 04:42:31;;;;;;;3.70;1.40;;;10.70;42.10;;;;;;5013501;28;20397;-70
2021/05/25 04:44:57;;;;;;;6.87;1.60;;;10.70;42.10;;;;;;5013315;28;20391;-70
2021/05/25 04:47:22;;;;;;;7.10;1.30;;;10.80;41.90;;;;;;5012905;28;20404;-69
2021/05/25 04:49:48;;;;;;;2.65;1.10;;;10.80;42.50;;;;;;5013372;28;20405;-70
2021/05/25 04:52:15;;;;;;;1.95;1.20;;;10.80;41.30;;;;;;5013268;28;20389;-72
2021/05/25 04:54:41;;;;;;;2.10;1.40;;;10.80;41.30;;;;;;4995407;28;20397;-70
2021/05/25 04:57:06;;;;;;;4.80;1.10;;;10.80;41.40;;;;;;5012802;28;20505;-70
2021/05/25 04:59:32;;;;;;;2.10;1.13;;;10.90;41.40;;;;;;5013057;28;20468;-70
2021/05/25 05:01:58;;;;;;;3.00;1.50;;;11.00;41.30;;;;;;5012971;28;20417;-69
2021/05/25 05:04:23;;;;;;;2.20;1.30;;;11.20;41.50;;;;;;5012961;28;20420;-70
2021/05/25 05:06:49;;;;;;;4.03;1.20;;;11.20;40.60;;;;;;5012052;28;20445;-70
2021/05/25 05:09:14;;;;;;;4.40;2.20;;;11.30;40.10;;;;;;5012350;28;20769;-70
2021/05/25 05:11:41;;;;;;;4.00;2.50;;;11.40;41.10;;;;;;5012924;28;20691;-70
2021/05/25 05:14:06;;;;;;;1.58;1.42;;;11.60;40.50;;;;;;5013567;28;20396;-70
2021/05/25 05:16:32;;;;;;;4.60;1.85;;;11.80;40.20;;;;;;5013618;28;20392;-70
2021/05/25 05:18:58;;;;;;;2.78;1.30;;;11.90;39.40;;;;;;5012744;28;20875;-70
2021/05/25 05:21:23;;;;;;;2.35;1.23;;;12.00;39.10;;;;;;5012610;28;20884;-70
2021/05/25 05:23:49;;;;;;;4.10;1.20;;;11.90;39.50;;;;;;5012132;28;20956;-70
2021/05/25 05:26:15;;;;;;;3.40;1.58;;;11.70;39.80;;;;;;5012654;28;20424;-71
2021/05/25 05:28:41;;;;;;;1.70;1.60;;;11.70;41.40;;;;;;5012465;28;20404;-70
2021/05/25 05:31:06;;;;;;;6.65;2.38;;;11.50;43.00;;;;;;5012447;28;20389;-70
2021/05/25 05:33:32;;;;;;;2.97;1.40;;;11.40;43.50;;;;;;5011753;28;20458;-69
2021/05/25 05:35:57;;;;;;;2.05;1.85;;;11.30;44.10;;;;;;5012141;28;20383;-70
2021/05/25 05:38:24;;;;;;;2.60;1.50;;;11.20;45.50;;;;;;5011962;28;20472;-69
2021/05/25 05:40:50;;;;;;;3.47;1.40;;;11.10;45.70;;;;;;5011790;28;20389;-69
2021/05/25 05:43:18;;;;;;;5.30;1.60;;;11.30;44.90;;;;;;5011881;28;20389;-69
2021/05/25 05:45:44;;;;;;;3.80;1.70;;;11.40;44.70;;;;;;5012003;28;20397;-70
2021/05/25 05:48:09;;;;;;;4.60;1.40;;;11.50;44.80;;;;;;4993872;28;20901;-69
2021/05/25 05:50:35;;;;;;;1.35;1.25;;;11.50;44.50;;;;;;5011622;28;20424;-70
2021/05/25 05:53:01;;;;;;;2.80;1.20;;;11.40;44.50;;;;;;5011677;28;20396;-70
2021/05/25 05:55:26;;;;;;;2.05;1.48;;;11.40;43.60;;;;;;5011265;28;20403;-70
2021/05/25 05:57:53;;;;;;;1.38;1.20;;;11.30;43.70;;;;;;5011438;28;20505;-71
2021/05/25 06:00:20;;;;;;;3.13;1.67;;;11.40;43.70;;;;;;5011403;28;20798;-71
2021/05/25 06:02:45;;;;;;;2.95;1.33;;;11.60;43.20;;;;;;5011276;28;20734;-69
2021/05/25 06:05:12;;;;;;;4.82;1.30;;;11.80;42.00;;;;;;5011148;28;20400;-69
2021/05/25 06:07:37;;;;;;;4.90;1.50;;;12.20;40.30;;;;;;5010864;28;20389;-70
2021/05/25 06:10:05;;;;;;;4.37;1.30;;;12.60;38.90;;;;;;5011412;28;20413;-70
2021/05/25 06:12:30;;;;;;;1.20;1.00;;;12.80;37.60;;;;;;5010977;28;20392;-71
2021/05/25 06:14:56;;;;;;;3.42;1.67;;;12.50;37.30;;;;;;5011697;28;20884;-69
2021/05/25 06:17:21;;;;;;;2.63;1.48;;;12.10;40.50;;;;;;5011664;28;20919;-69
2021/05/25 06:19:47;;;;;;;1.90;1.10;;;11.60;44.30;;;;;;5012021;28;20388;-73
2021/05/25 06:22:13;;;;;;;2.92;1.30;;;11.30;45.40;;;;;;5012550;28;20731;-70
2021/05/25 06:24:39;;;;;;;1.60;1.50;;;11.00;47.70;;;;;;5011240;28;20431;-69
2021/05/25 06:27:05;;;;;;;2.10;1.58;;;10.80;49.80;;;;;;5011283;28;20926;-69
2021/05/25 06:29:31;;;;;;;2.80;1.85;;;10.70;50.60;;;;;;5010958;28;20902;-70
2021/05/25 06:31:59;;;;;;;4.03;1.88;;;10.60;52.00;;;;;;5011308;28;20412;-69
2021/05/25 06:34:27;;;;;;;4.00;2.03;;;10.50;53.00;;;;;;5010228;28;20447;-70
2021/05/25 06:36:52;;;;;;;2.65;1.90;;;10.50;53.90;;;;;;5010906;28;20823;-70
2021/05/25 06:39:18;;;;;;;3.30;2.60;;;10.60;52.20;;;;;;5010777;28;20460;-70
2021/05/25 06:41:43;;;;;;;9.30;2.53;;;10.60;52.90;;;;;;4992829;28;20854;-70
2021/05/25 06:44:09;;;;;;;4.30;1.60;;;10.70;54.20;;;;;;5010093;28;20408;-71
2021/05/25 06:46:35;;;;;;;3.00;1.90;;;10.90;49.60;;;;;;5010927;28;20826;-70
2021/05/25 06:49:00;;;;;;;3.77;1.67;;;11.00;51.30;;;;;;5010684;28;20420;-71
2021/05/25 06:51:26;;;;;;;3.20;1.70;;;11.10;50.30;;;;;;5010704;28;20384;-70
2021/05/25 06:53:53;;;;;;;2.13;1.30;;;11.20;49.80;;;;;;5010927;28;20396;-70
2021/05/25 06:56:18;;;;;;;2.78;1.40;;;11.40;46.00;;;;;;5010987;28;20392;-70
2021/05/25 06:58:44;;;;;;;3.40;1.40;;;11.50;45.80;;;;;;5010730;28;20393;-69
2021/05/25 07:01:10;;;;;;;2.95;1.23;;;11.50;45.10;;;;;;5010454;28;20385;-69
2021/05/25 07:03:35;;;;;;;6.97;2.20;;;11.40;46.00;;;;;;5010242;28;20393;-69
2021/05/25 07:06:01;;;;;;;2.55;1.50;;;11.30;46.20;;;;;;5009558;28;20400;-69
2021/05/25 07:08:26;;;;;;;4.07;1.30;;;11.30;46.00;;;;;;4992070;28;20443;-69
2021/05/25 07:10:52;;;;;;;1.43;1.33;;;11.40;45.00;;;;;;5010230;28;20759;-68
2021/05/25 07:13:17;;;;;;;3.13;1.80;;;11.70;44.70;;;;;;5010086;28;20384;-69
2021/05/25 07:15:43;;;;;;;2.60;2.00;;;11.70;43.00;;;;;;5010398;28;20424;-70
2021/05/25 07:18:09;;;;;;;1.80;1.00;;;11.70;43.70;;;;;;5010177;28;20869;-69
2021/05/25 07:20:34;;;;;;;3.20;1.83;;;11.60;42.50;;;;;;5010058;28;20393;-69
2021/05/25 07:23:00;;;;;;;3.70;1.40;;;11.60;42.70;;;;;;5009841;28;20853;-69
2021/05/25 07:25:28;;;;;;;3.20;1.30;;;11.70;42.00;;;;;;5023531;28;20753;-68
2021/05/25 07:27:55;;;;;;;3.30;1.40;;;11.70;42.90;;;;;;5029718;28;20879;-69
2021/05/25 07:30:21;;;;;;;2.42;1.50;;;11.60;42.80;;;;;;5029886;28;20410;-70
2021/05/25 07:32:47;;;;;;;4.20;1.70;;;11.50;42.80;;;;;;5029874;28;20379;-69
2021/05/25 07:35:14;;;;;;;2.75;1.60;;;11.50;44.50;;;;;;5010683;28;20407;-69
2021/05/25 07:37:40;;;;;;;3.63;2.00;;;11.50;44.00;;;;;;5009464;28;20833;-68
2021/05/25 07:40:07;;;;;;;2.80;1.80;;;11.80;42.70;;;;;;5009465;28;20754;-69
2021/05/25 07:42:33;;;;;;;5.88;1.67;;;12.00;41.50;;;;;;5038384;23;20427;-75
2021/05/25 07:45:03;;;;;;;3.20;1.67;;;12.30;39.90;;;;;;5034363;28;20410;-82
2021/05/25 07:47:29;;;;;;;2.13;1.60;;;12.50;38.10;;;;;;5023273;28;20703;-84
2021/05/25 07:49:56;;;;;;;3.63;1.40;;;12.80;37.60;;;;;;5020253;28;20403;-78
2021/05/25 07:52:22;;;;;;;3.20;1.70;;;13.20;36.80;;;;;;5033856;28;20378;-76
2021/05/25 07:54:47;;;;;;;2.40;1.55;;;13.40;34.80;;;;;;5061945;28;20378;-78
2021/05/25 07:57:13;;;;;;;6.83;1.30;;;13.40;35.70;;;;;;5068928;28;20404;-78
2021/05/25 07:59:38;;;;;;;3.10;1.33;;;13.40;34.10;;;;;;5056978;28;20385;-78
2021/05/25 08:02:04;;;;;;;2.70;1.50;;;13.20;34.00;;;;;;5040187;28;20428;-76
2021/05/25 08:04:30;;;;;;;1.20;1.00;;;13.00;33.90;;;;;;5063313;28;20389;-77
2021/05/25 08:06:56;;;;;;;1.70;1.00;;;12.70;35.80;;;;;;5044809;28;20415;-78
2021/05/25 08:09:21;;;;;;;2.80;1.10;;;12.30;36.20;;;;;;5059710;28;20493;-77
2021/05/25 08:11:47;;;;;;;2.00;1.00;;;12.10;37.70;;;;;;5063733;28;20395;-77
2021/05/25 08:14:12;;;;;;;1.70;1.20;;;11.90;36.50;;;;;;5044351;28;20412;-78
2021/05/25 08:16:41;;;;;;;1.53;1.40;;;11.90;38.30;;;;;;5050867;28;20408;-79
2021/05/25 08:21:40;;;;;;;1.48;1.00;;;12.40;36.60;;;;;;5054936;28;20420;-77
2021/05/25 08:24:07;;;;;;;1.77;1.52;;;12.50;35.70;;;;;;5053849;28;20381;-78
2021/05/25 08:26:33;;;;;;;6.75;1.30;;;12.60;36.10;;;;;;5055238;28;20440;-78
2021/05/25 08:29:00;;;;;;;2.10;1.10;;;12.60;36.80;;;;;;5036958;28;20436;-78
2021/05/25 08:31:26;;;;;;;4.05;1.90;;;12.80;36.80;;;;;;5051603;28;20408;-75
2021/05/25 08:33:52;;;;;;;2.20;1.50;;;13.00;37.10;;;;;;5063634;28;20447;-77
2021/05/25 08:36:18;;;;;;;3.20;1.77;;;13.10;34.40;;;;;;5050711;28;20393;-77
2021/05/25 08:38:44;;;;;;;2.65;1.80;;;13.10;33.90;;;;;;5052758;28;20463;-77
2021/05/25 08:41:11;;;;;;;1.98;1.33;;;13.10;34.30;;;;;;5036142;28;20431;-78
2021/05/25 08:43:37;;;;;;;2.08;1.63;;;13.10;33.90;;;;;;5054144;28;20427;-78
2021/05/25 08:46:04;;;;;;;5.72;2.10;;;13.00;34.20;;;;;;5056665;28;20397;-78
2021/05/25 08:48:30;;;;;;;4.80;2.20;;;13.10;34.40;;;;;;5039455;28;20454;-78
2021/05/25 08:50:59;;;;;;;3.72;2.70;;;13.50;34.50;;;;;;5040161;28;20397;-78
2021/05/25 08:53:26;;;;;;;6.50;3.57;;;13.80;32.70;;;;;;5037821;28;20413;-77
2021/05/25 08:55:53;;;;;;;3.60;3.00;;;13.90;32.60;;;;;;5036021;28;20400;-77
2021/05/25 08:58:20;;;;;;;4.50;2.70;;;14.10;31.70;;;;;;5057179;28;20385;-79
2021/05/25 09:00:46;;;;;;;4.55;2.30;;;14.30;32.20;;;;;;5058090;28;20382;-79
2021/05/25 09:03:16;;;;;;;11.20;3.50;;;14.20;31.00;;;;;;5056181;28;20885;-78
2021/05/25 09:06:08;;;;;;;5.22;2.70;;;14.00;33.10;;;;;;5057384;28;20413;-77
2021/05/25 09:08:37;;;;;;;5.25;3.00;;;14.00;33.00;;;;;;5052380;28;20413;-79
2021/05/25 09:11:10;;;;;;;6.40;3.00;;;14.10;32.20;;;;;;5051952;28;20453;-77
2021/05/25 09:13:36;;;;;;;5.68;2.90;;;14.50;31.20;;;;;;5048219;28;20393;-77
2021/05/25 09:16:06;;;;;;;5.30;3.08;;;15.00;29.20;;;;;;5044492;28;20401;-77
2021/05/25 09:18:47;;;;;;;11.40;4.00;;;15.20;29.00;;;;;;5048550;28;20400;-77
2021/05/25 09:21:28;;;;;;;5.03;2.78;;;15.40;28.20;;;;;;5073998;28;20392;-77
2021/05/25 09:23:57;;;;;;;4.00;2.60;;;15.40;28.10;;;;;;5053454;28;20393;-78
2021/05/25 09:26:46;;;;;;;5.35;3.40;;;15.70;27.30;;;;;;5059729;28;20439;-79
2021/05/25 09:29:13;;;;;;;8.40;3.45;;;16.30;26.60;;;;;;5040880;28;20412;-78
2021/05/25 09:32:00;;;;;;;3.55;2.65;;;16.50;25.00;;;;;;5059593;28;20416;-82
2021/05/25 09:34:36;;;;;;;3.78;2.50;;;16.30;25.20;;;;;;5072195;28;20452;-85
2021/05/25 09:37:03;;;;;;;3.38;2.42;;;15.90;25.30;;;;;;5033312;28;20397;-83
2021/05/25 09:39:53;;;;;;;4.38;3.33;;;15.40;27.80;;;;;;5066476;28;20401;-86
2021/05/25 09:42:19;;;;;;;6.40;2.60;;;15.20;30.30;;;;;;5057395;28;20492;-84
2021/05/25 09:45:15;;;;;;;4.27;2.70;;;15.00;30.90;;;;;;5045233;28;20429;-84
2021/05/25 09:47:44;;;;;;;4.43;2.70;;;14.80;30.60;;;;;;5048834;28;20408;-85
2021/05/25 09:50:28;;;;;;;3.03;2.50;;;15.10;30.50;;;;;;5065260;28;20971;-83
2021/05/25 09:53:11;;;;;;;4.30;2.50;;;15.30;30.00;;;;;;5027354;28;20398;-83
2021/05/25 09:55:58;;;;;;;5.55;3.00;;;15.30;29.50;;;;;;5028492;28;20408;-84
2021/05/25 09:58:41;;;;;;;10.30;3.45;;;14.70;32.80;;;;;;5045144;28;20406;-84
2021/05/25 10:01:09;;;;;;;3.67;2.83;;;13.60;48.40;;;;;;5039239;28;20399;-84
2021/05/25 10:03:52;;;;;;;5.35;2.70;;;12.60;52.90;;;;;;5072199;28;20391;-84
2021/05/25 10:06:18;;;;;;;3.30;2.50;;;11.90;55.00;;;;;;5069082;28;20406;-86
2021/05/25 10:08:48;;;;;;;4.35;2.70;;;11.80;52.20;;;;;;5038811;28;20409;-77
2021/05/25 10:11:18;;;;;;;2.80;2.40;;;11.70;52.50;;;;;;5058121;28;20393;-84
2021/05/25 10:13:44;;;;;;;6.18;3.05;;;11.60;53.70;;;;;;5061555;28;20397;-84
2021/05/25 10:16:12;;;;;;;3.17;2.75;;;11.70;53.70;;;;;;5042976;28;20397;-83
2021/05/25 10:21:11;;;;;;;3.95;3.55;;;12.30;54.00;;;;;;5059453;28;20425;-83
2021/05/25 10:23:40;;;;;;;7.15;4.00;;;12.50;51.20;;;;;;5056234;28;20407;-83
2021/05/25 10:26:16;;;;;;;10.03;3.77;;;12.80;51.50;;;;;;5038442;28;20532;-82
2021/05/25 10:28:46;;;;;;;5.13;3.10;;;13.20;48.20;;;;;;5055170;28;20410;-82
2021/05/25 10:31:37;;;;;;;4.47;3.03;;;14.00;45.70;;;;;;5054586;28;20398;-83
2021/05/25 10:34:13;;;;;;;4.03;3.58;;;14.50;38.30;;;;;;5055869;28;20404;-84
2021/05/25 10:36:43;;;;;;;6.47;4.30;;;14.90;37.70;;;;;;5042822;28;20397;-81
2021/05/25 10:39:28;;;;;;;6.25;4.03;;;15.20;35.80;;;;;;5057436;28;20389;-79
2021/05/25 10:42:24;;;;;;;6.70;4.20;;;15.30;35.10;;;;;;5075269;28;20460;-80
2021/05/25 10:45:01;;;;;;;5.15;3.75;;;15.70;34.30;;;;;;5073305;28;20420;-80
2021/05/25 10:47:38;;;;;;;4.60;3.42;;;15.80;31.70;;;;;;5051370;28;20393;-82
2021/05/25 10:50:14;;;;;;;5.97;3.72;;;15.40;32.30;;;;;;5058781;28;20909;-84
2021/05/25 10:52:55;;;;;;;5.55;3.83;;;15.40;35.00;;;;;;5059407;28;20801;-79
2021/05/25 10:55:34;;;;;;;4.82;3.88;;;15.10;33.80;;;;;;5062930;28;20400;-79
2021/05/25 10:58:01;;;;;;;5.20;2.70;;;14.30;33.10;;;;;;5056611;28;20922;-79
2021/05/25 11:00:38;;;;;;;5.03;2.33;;;13.40;35.80;;;;;;5064594;28;20404;-78
2021/05/25 11:03:05;;;;;;;4.60;2.70;;;12.70;37.90;;;;;;5051431;28;20385;-77
2021/05/25 11:05:32;;;;;;;3.53;2.17;;;12.40;40.60;;;;;;5046322;28;20502;-77
2021/05/25 11:08:10;;;;;;;7.28;2.67;;;12.20;40.50;;;;;;5059771;28;20382;-78
2021/05/25 11:10:53;;;;;;;4.60;2.47;;;12.10;42.50;;;;;;5066523;28;20423;-78
2021/05/25 11:13:22;;;;;;;4.45;2.80;;;12.10;43.50;;;;;;5060125;28;20393;-78
2021/05/25 11:18:55;;;;;;;3.28;2.20;;;12.50;41.00;;;;;;5056445;28;20407;-79
2021/05/25 11:22:01;;;;;;;7.03;3.40;;;12.30;42.10;;;;;;5038610;28;20382;-79
2021/05/25 11:27:15;;;;;;;7.75;3.45;;;12.70;42.30;;;;;;5071954;28;20442;-77
2021/05/25 11:29:52;;;;;;;5.07;3.38;;;13.10;40.50;;;;;;5062458;28;20467;-79
2021/05/25 11:32:37;;;;;;;3.95;3.10;;;13.60;38.10;;;;;;5038462;28;20405;-77
2021/05/25 11:35:09;;;;;;;4.68;2.65;;;14.10;36.80;;;;;;5038359;28;20402;-80
2021/05/25 11:37:38;;;;;;;7.05;3.60;;;14.30;34.60;;;;;;5053347;28;20427;-80
2021/05/25 11:40:12;;;;;;;6.50;3.85;;;14.40;34.50;;;;;;5067034;28;20388;-78
2021/05/25 11:42:39;;;;;;;7.63;3.67;;;14.70;36.90;;;;;;5056588;28;20409;-80
2021/05/25 11:45:09;;;;;;;9.40;3.78;;;14.80;35.50;;;;;;5046380;28;20413;-82
2021/05/25 11:47:36;;;;;;;10.60;4.47;;;14.80;32.80;;;;;;5038252;28;20484;-77
2021/05/25 11:50:02;;;;;;;7.80;4.30;;;14.90;36.10;;;;;;5056524;28;20972;-77
2021/05/25 11:52:33;;;;;;;10.80;5.10;;;15.20;32.20;;;;;;5022522;28;20393;-77
2021/05/25 11:55:05;;;;;;;8.93;4.10;;;15.20;32.00;;;;;;5038598;28;20796;-77
2021/05/25 11:57:38;;;;;;;9.23;5.30;;;15.20;32.20;;;;;;5063230;28;20401;-77
2021/05/25 12:00:07;;;;;;;6.20;5.60;;;15.30;32.60;;;;;;5039335;28;20401;-76
2021/05/25 12:02:34;;;;;;;8.95;5.78;;;15.60;31.00;;;;;;5036981;28;20435;-78
2021/05/25 12:05:07;;;;;;;7.10;5.35;;;15.90;32.40;;;;;;5054965;28;20387;-78
2021/05/25 12:07:34;;;;;;;5.82;4.90;;;16.20;31.70;;;;;;5033565;28;20403;-79
2021/05/25 12:10:02;;;;;;;8.25;4.65;;;16.70;28.00;;;;;;5037498;28;20453;-77
2021/05/25 12:12:29;;;;;;;7.50;4.10;;;17.10;25.60;;;;;;5047556;28;20856;-77
2021/05/25 12:14:59;;;;;;;7.30;3.90;;;16.70;24.20;;;;;;5062776;28;20412;-76
2021/05/25 12:17:26;;;;;;;5.07;3.33;;;15.90;26.20;;;;;;5071855;28;20517;-77
2021/05/25 12:19:56;;;;;;;4.10;2.30;;;15.20;28.60;;;;;;5069450;28;20465;-77
2021/05/25 12:22:35;;;;;;;2.60;2.37;;;14.40;29.50;;;;;;5066460;28;20397;-77
2021/05/25 12:25:25;;;;;;;4.07;2.40;;;13.90;32.70;;;;;;5036990;28;20409;-77
2021/05/25 12:28:04;;;;;;;2.20;2.00;;;13.50;34.70;;;;;;5059629;28;20401;-77
2021/05/25 12:30:30;;;;;;;3.38;1.85;;;13.20;36.40;;;;;;5068510;28;20385;-76
2021/05/25 12:32:56;;;;;;;4.10;2.17;;;12.90;37.80;;;;;;5049603;28;20397;-76
2021/05/25 12:35:24;;;;;;;3.13;1.90;;;12.70;39.20;;;;;;5062540;28;20480;-77
2021/05/25 12:38:13;;;;;;;4.40;2.20;;;12.70;39.70;;;;;;5061593;28;20393;-77
2021/05/25 12:40:41;;;;;;;6.93;1.73;;;12.80;37.40;;;;;;5060364;28;20745;-76
2021/05/25 12:43:22;;;;;;;1.80;1.50;;;13.10;38.50;;;;;;5069769;28;20725;-84
2021/05/25 12:45:48;;;;;;;2.90;1.80;;;13.40;36.60;;;;;;5055244;28;20485;-85
2021/05/25 12:48:16;;;;;;;2.30;1.70;;;13.50;36.40;;;;;;5062639;28;20407;-85
2021/05/25 12:50:43;;;;;;;1.95;1.50;;;13.80;33.00;;;;;;5060071;28;20430;-85
2021/05/25 12:53:10;;;;;;;1.70;1.60;;;14.10;32.30;;;;;;5046443;28;20385;-83
2021/05/25 12:55:41;;;;;;;3.20;1.70;;;14.10;30.80;;;;;;5049076;28;20726;-83
2021/05/25 12:58:07;;;;;;;5.00;2.00;;;14.10;31.80;;;;;;5048411;28;20389;-85
2021/05/25 13:00:36;;;;;;;3.80;1.60;;;14.30;30.80;;;;;;5042879;28;20405;-84
2021/05/25 13:03:05;;;;;;;4.60;1.60;;;14.70;31.00;;;;;;5040966;28;20478;-82
2021/05/25 13:05:34;;;;;;;5.17;1.93;;;15.40;28.70;;;;;;5042413;28;20510;-87
2021/05/25 13:08:09;;;;;;;4.95;1.60;;;15.50;27.60;;;;;;5040485;28;20411;-84
2021/05/25 13:10:44;;;;;;;5.50;1.40;;;15.30;29.70;;;;;;5039919;28;20395;-85